Stations météo

réclame
Mon MeteoGroup
Trento, Italie (16023): Température de l'air & dewpoint: 10.12.2017 12:00:00 - 16.12.2017 12:00:00 (CET)Trento, Italie (16023): Vitesse du vent: 10.12.2017 12:00:00 - 16.12.2017 12:00:00 (CET)Trento, Italie (16023): Direction du vent: 10.12.2017 12:00:00 - 16.12.2017 12:00:00 (CET)Trento, Italie (16023): reduced air pressure: 10.12.2017 12:00:00 - 16.12.2017 12:00:00 (CET)Trento, Italie (16023): Quantités de précipitations: 10.12.2017 12:00:00 - 16.12.2017 12:00:00 (CET)
Date & Time tt [°C] td [°C] ff [km/h] ff [knt] dd ppp [hPa] rr [mm]
16.12.2017 12:00:00 - - - - - - -
16.12.2017 11:00:00 1,1 -7,0 2 1 WSW 1009,4 -
16.12.2017 10:00:00 1,5 -7,7 2 1 NNW 1008,9 -
16.12.2017 09:00:00 2,7 -7,9 13 7 WNW 1007,5 -
16.12.2017 08:00:00 2,3 -8,0 5 3 WNW 1006,6 -
16.12.2017 07:00:00 3,1 -7,8 16 9 ENE 1005,4 -
16.12.2017 06:00:00 3,2 -7,4 8 4 ENE 1004,7 -
16.12.2017 05:00:00 3,2 -7,4 18 10 ENE 1003,7 -
16.12.2017 04:00:00 2,3 -6,9 4 2 NW 1003,1 -
16.12.2017 03:00:00 3,5 -6,1 2 1 SE 1002,5 -
16.12.2017 02:00:00 4,1 -5,5 18 10 ENE 1001,1 -
16.12.2017 01:00:00 4,3 -4,5 15 8 E 1000,6 -
16.12.2017 00:00:00 4,4 -3,2 21 11 NE 1000,5 -
15.12.2017 23:00:00 4,5 -1,6 9 5 NE 1000,1 -
15.12.2017 22:00:00 4,8 0,3 11 6 ENE 999,8 -
15.12.2017 21:00:00 4,7 3,2 18 10 ENE 999,5 -
15.12.2017 20:00:00 1,3 -0,8 4 2 NW 999,4 -
15.12.2017 19:00:00 1,6 -0,7 4 2 SW 999,2 0,0
15.12.2017 18:00:00 1,8 -1,2 4 2 ENE 999,3 -
15.12.2017 17:00:00 2,7 -1,0 4 2 E 999,4 -
15.12.2017 16:00:00 4,0 -0,1 2 1 WNW 999,1 -
15.12.2017 15:00:00 4,1 0,0 8 4 NNW 999,4 -
15.12.2017 14:00:00 4,0 -0,3 8 4 N 999,5 -
15.12.2017 13:00:00 3,8 -0,3 11 6 NNW 999,8 0,0
15.12.2017 12:00:00 3,2 0,6 2 1 ENE 1001,1 -
15.12.2017 11:00:00 1,9 -0,1 4 2 N 1001,7 -
15.12.2017 10:00:00 0,8 -1,1 2 1 N 1002,2 -
15.12.2017 09:00:00 0,5 -1,4 4 2 N 1001,6 -
15.12.2017 08:00:00 0,7 -1,1 0 0 N 1001,2 -
15.12.2017 07:00:00 0,9 -0,3 8 4 NNW 1000,8 0,0
15.12.2017 06:00:00 -1,2 -2,8 4 2 N 1000,6 -
15.12.2017 05:00:00 -1,4 -3,2 0 0 N 1001,0 -
15.12.2017 04:00:00 -1,7 -3,6 4 2 E 1001,4 -
15.12.2017 03:00:00 -2,1 -4,3 8 4 N 1002,1 -
15.12.2017 02:00:00 -1,9 -4,3 0 0 N 1002,1 -
15.12.2017 01:00:00 -1,6 -4,1 4 2 N 1003,0 0,0
15.12.2017 00:00:00 -1,1 -3,5 4 2 NNE 1003,5 -
14.12.2017 23:00:00 -0,6 -3,2 2 1 W 1003,9 -
14.12.2017 22:00:00 -0,4 -3,3 2 1 NNE 1004,3 -
14.12.2017 21:00:00 -0,4 -3,8 5 3 WSW 1005,5 -
14.12.2017 20:00:00 0,2 -3,6 8 4 W 1005,8 -
14.12.2017 19:00:00 0,5 -4,4 4 2 WSW 1006,2 0,0
14.12.2017 18:00:00 1,5 -4,9 2 1 E 1006,5 -
14.12.2017 17:00:00 2,8 -4,7 2 1 NE 1006,3 -
14.12.2017 16:00:00 4,2 -4,6 5 3 N 1006,2 -
14.12.2017 15:00:00 5,1 -4,1 8 4 NNW 1006,5 -
14.12.2017 14:00:00 5,1 -4,3 5 3 N 1007,2 -
14.12.2017 13:00:00 5,5 -3,2 9 5 NNW 1007,8 0,0
14.12.2017 12:00:00 5,2 -1,6 2 1 SW 1009,2 -
14.12.2017 11:00:00 2,4 -2,0 5 3 SE 1010,1 -
14.12.2017 10:00:00 1,6 -1,9 0 0 N 1010,9 -
14.12.2017 09:00:00 1,8 -1,3 2 1 E 1010,8 -
14.12.2017 08:00:00 1,7 -1,1 0 0 N 1010,3 -
14.12.2017 07:00:00 1,4 -1,0 4 2 ENE 1010,3 0,0
14.12.2017 06:00:00 1,0 -1,4 2 1 NNW 1010,7 -
14.12.2017 05:00:00 0,8 -1,8 4 2 ESE 1011,0 -
14.12.2017 04:00:00 1,0 -1,1 0 0 N 1011,5 -
14.12.2017 03:00:00 0,5 -1,8 5 3 NE 1012,4 -
14.12.2017 02:00:00 0,3 -2,1 8 4 E 1013,1 -
14.12.2017 01:00:00 0,0 -2,6 4 2 NW 1013,6 0,0
14.12.2017 00:00:00 -0,2 -2,9 4 2 ESE 1015,0 -
13.12.2017 23:00:00 -0,1 -3,5 4 2 WNW 1014,8 -
13.12.2017 22:00:00 0,5 -3,3 2 1 SSE 1015,3 -
13.12.2017 21:00:00 1,2 -3,2 2 1 SE 1016,2 -
13.12.2017 20:00:00 2,0 -3,6 4 2 ESE 1016,1 -
13.12.2017 19:00:00 2,6 -3,4 4 2 NE 1016,0 0,0
13.12.2017 18:00:00 2,9 -4,0 2 1 ESE 1016,2 -
13.12.2017 17:00:00 3,8 -4,3 2 1 SSW 1016,1 -
13.12.2017 16:00:00 5,3 -4,4 4 2 SE 1016,1 -
13.12.2017 15:00:00 6,7 -5,1 4 2 N 1016,3 -
13.12.2017 14:00:00 6,7 -4,5 11 6 N 1017,1 -
13.12.2017 13:00:00 6,6 -4,0 8 4 N 1018,3 0,0
13.12.2017 12:00:00 6,0 -3,0 15 8 NE 1018,8 -
13.12.2017 11:00:00 4,9 -2,1 4 2 NNW 1019,6 -
13.12.2017 10:00:00 3,9 0,0 5 3 ENE 1019,9 -
13.12.2017 09:00:00 2,0 0,5 2 1 SW 1019,7 -
13.12.2017 08:00:00 1,3 0,1 8 4 SW 1019,3 -
13.12.2017 07:00:00 1,3 0,3 2 1 NNW 1018,7 -
13.12.2017 06:00:00 1,8 0,9 4 2 E 1018,0 -
13.12.2017 05:00:00 1,6 0,7 5 3 NE 1017,5 -
13.12.2017 04:00:00 1,0 0,0 4 2 NNW 1017,7 -
13.12.2017 03:00:00 1,5 0,5 2 1 N 1017,5 -
13.12.2017 02:00:00 1,3 0,1 4 2 NNE 1017,0 -
13.12.2017 01:00:00 0,9 -0,4 4 2 WNW 1016,8 -
13.12.2017 00:00:00 0,3 -1,3 5 3 NE 1015,9 -
12.12.2017 23:00:00 0,9 -0,7 0 0 N 1015,4 -
12.12.2017 22:00:00 1,1 -0,7 4 2 E 1015,0 -
12.12.2017 21:00:00 1,8 -0,2 2 1 NE 1014,3 -
12.12.2017 20:00:00 2,3 0,2 0 0 N 1013,7 -
12.12.2017 19:00:00 2,9 0,4 5 3 E 1013,0 0,0
12.12.2017 18:00:00 3,7 0,9 4 2 ENE 1012,3 -
12.12.2017 17:00:00 4,5 1,1 2 1 N 1011,6 -
12.12.2017 16:00:00 5,9 3,0 4 2 WNW 1010,5 -
12.12.2017 15:00:00 6,1 3,0 5 3 N 1009,6 -
12.12.2017 14:00:00 7,5 4,2 2 1 E 1008,9 -
12.12.2017 13:00:00 7,5 4,6 2 1 E 1008,7 0,0
12.12.2017 12:00:00 6,2 3,8 8 4 N 1008,6 -
12.12.2017 11:00:00 5,5 3,1 4 2 NNW 1008,4 -
12.12.2017 10:00:00 5,0 2,1 8 4 SE 1007,3 -
12.12.2017 09:00:00 5,2 1,1 2 1 N 1006,1 -
12.12.2017 08:00:00 8,3 2,5 5 3 SSW 1004,3 -
12.12.2017 07:00:00 8,6 5,1 5 3 SE 1002,6 0,0
12.12.2017 06:00:00 7,5 7,4 13 7 SSE 1001,1 -
12.12.2017 05:00:00 6,9 6,9 16 9 SE 1000,0 -
12.12.2017 04:00:00 2,0 1,3 5 3 SSE 1000,0 -
12.12.2017 03:00:00 1,1 0,2 4 2 NE 999,5 -
12.12.2017 02:00:00 1,0 0,1 0 0 N 998,9 -
12.12.2017 01:00:00 1,1 0,2 2 1 NE 998,8 0,0
12.12.2017 00:00:00 1,0 0,1 0 0 N 998,6 -
11.12.2017 23:00:00 1,0 0,0 4 2 ESE 998,2 -
11.12.2017 22:00:00 1,1 0,1 2 1 SW 998,5 -
11.12.2017 21:00:00 1,1 0,1 2 1 NW 998,6 -
11.12.2017 20:00:00 1,1 0,1 2 1 ENE 998,9 -
11.12.2017 19:00:00 1,0 -0,2 0 0 N 999,2 0,0
11.12.2017 18:00:00 0,9 -0,3 0 0 N 999,6 -
11.12.2017 17:00:00 0,9 -0,4 0 0 N 999,9 -
11.12.2017 16:00:00 0,8 -0,5 0 0 N 999,5 -
11.12.2017 15:00:00 0,6 -0,9 0 0 N 999,8 -
11.12.2017 14:00:00 0,6 -0,9 0 0 N 1000,7 -
11.12.2017 13:00:00 0,5 -1,0 2 1 WNW 1000,9 0,0
11.12.2017 12:00:00 0,2 -1,6 5 3 NNW 1001,2 -
11.12.2017 11:00:00 -0,1 -1,9 8 4 N 1002,5 -
11.12.2017 10:00:00 -0,2 -2,0 5 3 N 1003,0 -
11.12.2017 09:00:00 -0,3 -1,9 9 5 N 1002,9 -
11.12.2017 08:00:00 -0,7 -2,3 9 5 NE 1003,4 -
11.12.2017 07:00:00 -0,8 -2,4 18 10 NNE 1003,6 -
11.12.2017 06:00:00 -1,1 -2,7 5 3 NNE 1004,1 -
11.12.2017 05:00:00 -1,6 -3,4 5 3 N 1004,8 -
11.12.2017 04:00:00 -1,6 -3,4 5 3 N 1005,7 -
11.12.2017 03:00:00 -1,7 -3,5 5 3 NNW 1006,1 -
11.12.2017 02:00:00 -1,7 -3,5 13 7 NE 1006,4 -
11.12.2017 01:00:00 -1,6 -3,5 8 4 NNE 1007,1 -
11.12.2017 00:00:00 -1,6 -3,5 9 5 N 1007,6 -
10.12.2017 23:00:00 -1,6 -3,5 4 2 NNE 1007,7 -
10.12.2017 22:00:00 -1,7 -3,6 8 4 NNE 1007,9 -
10.12.2017 21:00:00 -1,8 -3,9 0 0 N 1008,3 -
10.12.2017 20:00:00 -1,9 -4,1 5 3 NNW 1008,8 -
10.12.2017 19:00:00 -2,0 -4,4 11 6 N 1009,2 0,0
10.12.2017 18:00:00 -2,1 -4,8 4 2 N 1009,5 -
10.12.2017 17:00:00 -2,1 -5,5 5 3 NW 1009,9 -
10.12.2017 16:00:00 -2,1 -6,7 4 2 WNW 1010,4 -
10.12.2017 15:00:00 -1,8 -8,4 5 3 N 1010,8 -
10.12.2017 14:00:00 0,1 -12,4 0 0 N 1011,5 -
10.12.2017 13:00:00 0,0 -13,1 2 1 ESE 1012,4 0,0
10.12.2017 12:00:00 0,0 -13,1 0 0 N 1013,5 -

tt = Température de l'air
td = dewpoint
ff = Vitesse du vent
dd = Direction du vent
ppp = reduced air pressure
rr = Quantités de précipitations

stations d'obs. à proximité